sensor_id;sensor_type;location;lat;lon;timestamp;pressure;altitude;pressure_sealevel;temperature;humidity
45541;BME280;31265;49.680;8.608;2023-04-27T00:01:35;100699.19;;;5.23;100.00
45541;BME280;31265;49.680;8.608;2023-04-27T00:04:07;100702.59;;;5.10;100.00
45541;BME280;31265;49.680;8.608;2023-04-27T00:06:40;100708.94;;;5.00;100.00
45541;BME280;31265;49.680;8.608;2023-04-27T00:09:08;100707.00;;;4.89;100.00
45541;BME280;31265;49.680;8.608;2023-04-27T00:11:42;100707.56;;;4.82;100.00
45541;BME280;31265;49.680;8.608;2023-04-27T00:14:11;100709.09;;;4.77;100.00
45541;BME280;31265;49.680;8.608;2023-04-27T00:16:49;100701.94;;;4.68;100.00
45541;BME280;31265;49.680;8.608;2023-04-27T00:19:17;100706.22;;;4.64;100.00
45541;BME280;31265;49.680;8.608;2023-04-27T00:21:46;100705.75;;;4.60;100.00
45541;BME280;31265;49.680;8.608;2023-04-27T00:24:14;100698.03;;;4.58;100.00
45541;BME280;31265;49.680;8.608;2023-04-27T00:26:42;100704.31;;;4.53;100.00
45541;BME280;31265;49.680;8.608;2023-04-27T00:29:14;100699.34;;;4.46;100.00
45541;BME280;31265;49.680;8.608;2023-04-27T00:31:44;100701.88;;;4.44;100.00
45541;BME280;31265;49.680;8.608;2023-04-27T00:34:12;100696.13;;;4.42;100.00
45541;BME280;31265;49.680;8.608;2023-04-27T00:36:46;100701.38;;;4.40;100.00
45541;BME280;31265;49.680;8.608;2023-04-27T00:39:19;100697.91;;;4.39;100.00
45541;BME280;31265;49.680;8.608;2023-04-27T00:41:47;100695.94;;;4.34;100.00
45541;BME280;31265;49.680;8.608;2023-04-27T00:44:24;100689.50;;;4.20;100.00
45541;BME280;31265;49.680;8.608;2023-04-27T00:46:53;100691.81;;;4.16;100.00
45541;BME280;31265;49.680;8.608;2023-04-27T00:49:22;100698.06;;;4.11;100.00
45541;BME280;31265;49.680;8.608;2023-04-27T00:51:53;100683.63;;;4.05;100.00
45541;BME280;31265;49.680;8.608;2023-04-27T00:54:22;100700.13;;;3.99;100.00
45541;BME280;31265;49.680;8.608;2023-04-27T00:56:51;100695.16;;;3.92;100.00
45541;BME280;31265;49.680;8.608;2023-04-27T00:59:21;100699.72;;;3.84;100.00
45541;BME280;31265;49.680;8.608;2023-04-27T01:01:58;100690.78;;;3.72;100.00
45541;BME280;31265;49.680;8.608;2023-04-27T01:04:27;100698.81;;;3.59;100.00
45541;BME280;31265;49.680;8.608;2023-04-27T01:06:59;100698.34;;;3.49;100.00
45541;BME280;31265;49.680;8.608;2023-04-27T01:09:33;100702.09;;;3.40;100.00
45541;BME280;31265;49.680;8.608;2023-04-27T01:12:01;100706.63;;;3.32;100.00
45541;BME280;31265;49.680;8.608;2023-04-27T01:14:32;100696.16;;;3.25;100.00
45541;BME280;31265;49.680;8.608;2023-04-27T01:17:04;100712.09;;;3.21;100.00
45541;BME280;31265;49.680;8.608;2023-04-27T01:19:37;100705.38;;;3.16;100.00
45541;BME280;31265;49.680;8.608;2023-04-27T01:22:06;100712.13;;;3.10;100.00
45541;BME280;31265;49.680;8.608;2023-04-27T01:24:35;100709.16;;;3.08;100.00
45541;BME280;31265;49.680;8.608;2023-04-27T01:27:04;100718.13;;;3.03;100.00
45541;BME280;31265;49.680;8.608;2023-04-27T01:29:34;100713.41;;;2.97;100.00
45541;BME280;31265;49.680;8.608;2023-04-27T01:32:03;100710.88;;;2.94;100.00
45541;BME280;31265;49.680;8.608;2023-04-27T01:34:32;100713.88;;;2.96;100.00
45541;BME280;31265;49.680;8.608;2023-04-27T01:37:00;100716.63;;;2.90;100.00
45541;BME280;31265;49.680;8.608;2023-04-27T01:39:30;100715.66;;;2.82;100.00
45541;BME280;31265;49.680;8.608;2023-04-27T01:42:01;100708.91;;;2.77;100.00
45541;BME280;31265;49.680;8.608;2023-04-27T01:44:34;100716.13;;;2.75;100.00
45541;BME280;31265;49.680;8.608;2023-04-27T01:47:03;100714.63;;;2.74;100.00
45541;BME280;31265;49.680;8.608;2023-04-27T01:49:32;100715.38;;;2.69;100.00
45541;BME280;31265;49.680;8.608;2023-04-27T01:52:21;100719.13;;;2.66;100.00
45541;BME280;31265;49.680;8.608;2023-04-27T01:54:49;100723.13;;;2.65;100.00
45541;BME280;31265;49.680;8.608;2023-04-27T01:57:19;100720.13;;;2.63;100.00
45541;BME280;31265;49.680;8.608;2023-04-27T02:00:09;100722.84;;;2.57;100.00
45541;BME280;31265;49.680;8.608;2023-04-27T02:02:49;100723.34;;;2.55;100.00
45541;BME280;31265;49.680;8.608;2023-04-27T02:05:19;100720.09;;;2.57;100.00
45541;BME280;31265;49.680;8.608;2023-04-27T02:07:48;100726.34;;;2.57;100.00
45541;BME280;31265;49.680;8.608;2023-04-27T02:10:16;100731.06;;;2.57;100.00
45541;BME280;31265;49.680;8.608;2023-04-27T02:12:46;100734.78;;;2.54;100.00
45541;BME280;31265;49.680;8.608;2023-04-27T02:15:32;100726.56;;;2.48;100.00
45541;BME280;31265;49.680;8.608;2023-04-27T02:18:20;100727.06;;;2.47;100.00
45541;BME280;31265;49.680;8.608;2023-04-27T02:21:13;100725.84;;;2.48;100.00
45541;BME280;31265;49.680;8.608;2023-04-27T02:23:42;100734.28;;;2.44;100.00
45541;BME280;31265;49.680;8.608;2023-04-27T02:26:31;100730.53;;;2.42;100.00
45541;BME280;31265;49.680;8.608;2023-04-27T02:29:19;100734.78;;;2.43;100.00
45541;BME280;31265;49.680;8.608;2023-04-27T02:32:08;100735.75;;;2.40;100.00
45541;BME280;31265;49.680;8.608;2023-04-27T02:34:37;100732.78;;;2.38;100.00
45541;BME280;31265;49.680;8.608;2023-04-27T02:37:05;100740.97;;;2.32;100.00
45541;BME280;31265;49.680;8.608;2023-04-27T02:39:35;100752.91;;;2.29;100.00
45541;BME280;31265;49.680;8.608;2023-04-27T02:42:23;100738.47;;;2.23;100.00
45541;BME280;31265;49.680;8.608;2023-04-27T02:45:11;100743.44;;;2.19;100.00
45541;BME280;31265;49.680;8.608;2023-04-27T02:47:58;100740.69;;;2.13;100.00
45541;BME280;31265;49.680;8.608;2023-04-27T02:50:27;100738.91;;;2.10;100.00
45541;BME280;31265;49.680;8.608;2023-04-27T02:52:55;100743.38;;;2.07;100.00
45541;BME280;31265;49.680;8.608;2023-04-27T02:55:24;100736.16;;;2.04;100.00
45541;BME280;31265;49.680;8.608;2023-04-27T02:58:14;100747.91;;;2.10;100.00
45541;BME280;31265;49.680;8.608;2023-04-27T03:00:44;100741.16;;;2.11;100.00
45541;BME280;31265;49.680;8.608;2023-04-27T03:03:30;100739.44;;;2.08;100.00
45541;BME280;31265;49.680;8.608;2023-04-27T03:05:58;100735.44;;;2.04;100.00
45541;BME280;31265;49.680;8.608;2023-04-27T03:08:44;100751.09;;;2.03;100.00
45541;BME280;31265;49.680;8.608;2023-04-27T03:11:13;100749.84;;;2.04;100.00
45541;BME280;31265;49.680;8.608;2023-04-27T03:13:44;100744.63;;;2.06;100.00
45541;BME280;31265;49.680;8.608;2023-04-27T03:16:14;100729.47;;;2.05;100.00
45541;BME280;31265;49.680;8.608;2023-04-27T03:22:28;100727.94;;;2.04;100.00
45541;BME280;31265;49.680;8.608;2023-04-27T03:24:56;100737.44;;;2.09;100.00
45541;BME280;31265;49.680;8.608;2023-04-27T03:27:27;100731.69;;;2.12;100.00
45541;BME280;31265;49.680;8.608;2023-04-27T03:29:57;100729.00;;;2.18;100.00
45541;BME280;31265;49.680;8.608;2023-04-27T03:32:27;100727.75;;;2.25;100.00
45541;BME280;31265;49.680;8.608;2023-04-27T03:34:57;100724.78;;;2.34;100.00
45541;BME280;31265;49.680;8.608;2023-04-27T03:37:26;100735.28;;;2.41;100.00
45541;BME280;31265;49.680;8.608;2023-04-27T03:39:56;100727.31;;;2.49;100.00
45541;BME280;31265;49.680;8.608;2023-04-27T03:42:24;100733.31;;;2.58;100.00
45541;BME280;31265;49.680;8.608;2023-04-27T03:44:52;100735.81;;;2.62;100.00
45541;BME280;31265;49.680;8.608;2023-04-27T03:47:20;100728.81;;;2.67;100.00
45541;BME280;31265;49.680;8.608;2023-04-27T03:49:50;100725.84;;;2.70;100.00
45541;BME280;31265;49.680;8.608;2023-04-27T03:52:18;100718.13;;;2.74;100.00
45541;BME280;31265;49.680;8.608;2023-04-27T03:54:47;100733.59;;;2.77;100.00
45541;BME280;31265;49.680;8.608;2023-04-27T03:57:17;100721.38;;;2.78;100.00
45541;BME280;31265;49.680;8.608;2023-04-27T03:59:46;100731.09;;;2.79;100.00
45541;BME280;31265;49.680;8.608;2023-04-27T04:02:14;100732.09;;;2.82;100.00
45541;BME280;31265;49.680;8.608;2023-04-27T04:04:43;100728.09;;;2.83;100.00
45541;BME280;31265;49.680;8.608;2023-04-27T04:07:13;100728.59;;;2.87;100.00
45541;BME280;31265;49.680;8.608;2023-04-27T04:09:41;100728.34;;;2.91;100.00
45541;BME280;31265;49.680;8.608;2023-04-27T04:12:13;100735.06;;;2.95;100.00
45541;BME280;31265;49.680;8.608;2023-04-27T04:14:42;100734.81;;;3.05;100.00
45541;BME280;31265;49.680;8.608;2023-04-27T04:17:11;100734.81;;;3.10;100.00
45541;BME280;31265;49.680;8.608;2023-04-27T04:19:40;100738.81;;;3.15;100.00
45541;BME280;31265;49.680;8.608;2023-04-27T04:22:08;100738.78;;;3.26;100.00
45541;BME280;31265;49.680;8.608;2023-04-27T04:24:37;100739.78;;;3.34;100.00
45541;BME280;31265;49.680;8.608;2023-04-27T04:27:06;100733.78;;;3.41;100.00
45541;BME280;31265;49.680;8.608;2023-04-27T04:29:34;100738.22;;;3.50;100.00
45541;BME280;31265;49.680;8.608;2023-04-27T04:32:02;100738.72;;;3.60;100.00
45541;BME280;31265;49.680;8.608;2023-04-27T04:34:30;100739.47;;;3.66;100.00
45541;BME280;31265;49.680;8.608;2023-04-27T04:37:00;100738.16;;;3.73;100.00
45541;BME280;31265;49.680;8.608;2023-04-27T04:39:29;100730.91;;;3.81;100.00
45541;BME280;31265;49.680;8.608;2023-04-27T04:41:59;100732.13;;;3.91;100.00
45541;BME280;31265;49.680;8.608;2023-04-27T04:44:29;100735.81;;;3.99;100.00
45541;BME280;31265;49.680;8.608;2023-04-27T04:46:58;100732.78;;;4.08;100.00
45541;BME280;31265;49.680;8.608;2023-04-27T04:49:26;100737.22;;;4.17;100.00
45541;BME280;31265;49.680;8.608;2023-04-27T04:51:55;100739.41;;;4.30;100.00
45541;BME280;31265;49.680;8.608;2023-04-27T04:54:23;100744.13;;;4.35;100.00
45541;BME280;31265;49.680;8.608;2023-04-27T04:56:51;100734.88;;;4.38;100.00
45541;BME280;31265;49.680;8.608;2023-04-27T04:59:22;100745.59;;;4.42;100.00
45541;BME280;31265;49.680;8.608;2023-04-27T05:01:52;100738.56;;;4.46;100.00
45541;BME280;31265;49.680;8.608;2023-04-27T05:04:22;100748.53;;;4.55;100.00
45541;BME280;31265;49.680;8.608;2023-04-27T05:06:50;100739.25;;;4.58;100.00
45541;BME280;31265;49.680;8.608;2023-04-27T05:09:21;100741.69;;;4.67;100.00
45541;BME280;31265;49.680;8.608;2023-04-27T05:11:52;100741.13;;;4.74;100.00
45541;BME280;31265;49.680;8.608;2023-04-27T05:14:24;100746.31;;;4.84;100.00
45541;BME280;31265;49.680;8.608;2023-04-27T05:16:53;100747.47;;;4.94;100.00
45541;BME280;31265;49.680;8.608;2023-04-27T05:19:21;100751.16;;;5.02;100.00
45541;BME280;31265;49.680;8.608;2023-04-27T05:21:53;100755.41;;;5.03;100.00
45541;BME280;31265;49.680;8.608;2023-04-27T05:24:26;100755.41;;;5.03;100.00
45541;BME280;31265;49.680;8.608;2023-04-27T05:26:54;100751.34;;;5.10;100.00
45541;BME280;31265;49.680;8.608;2023-04-27T05:29:24;100765.06;;;5.15;100.00
45541;BME280;31265;49.680;8.608;2023-04-27T05:31:53;100766.22;;;5.26;100.00
45541;BME280;31265;49.680;8.608;2023-04-27T05:34:24;100770.91;;;5.31;100.00
45541;BME280;31265;49.680;8.608;2023-04-27T05:36:52;100779.00;;;5.48;100.00
45541;BME280;31265;49.680;8.608;2023-04-27T05:39:20;100776.66;;;5.57;100.00
45541;BME280;31265;49.680;8.608;2023-04-27T05:41:50;100785.59;;;5.64;100.00
45541;BME280;31265;49.680;8.608;2023-04-27T05:44:19;100790.53;;;5.71;100.00
45541;BME280;31265;49.680;8.608;2023-04-27T05:46:49;100788.75;;;5.73;100.00
45541;BME280;31265;49.680;8.608;2023-04-27T05:49:17;100786.78;;;5.74;100.00
45541;BME280;31265;49.680;8.608;2023-04-27T05:51:46;100785.56;;;5.69;100.00
45541;BME280;31265;49.680;8.608;2023-04-27T05:54:16;100792.56;;;5.70;100.00
45541;BME280;31265;49.680;8.608;2023-04-27T05:56:44;100792.72;;;5.78;100.00
45541;BME280;31265;49.680;8.608;2023-04-27T05:59:13;100791.09;;;5.94;100.00
45541;BME280;31265;49.680;8.608;2023-04-27T06:01:42;100790.50;;;6.20;100.00
45541;BME280;31265;49.680;8.608;2023-04-27T06:04:11;100792.97;;;6.23;100.00
45541;BME280;31265;49.680;8.608;2023-04-27T06:06:39;100793.88;;;6.51;100.00
45541;BME280;31265;49.680;8.608;2023-04-27T06:09:08;100796.56;;;6.56;100.00
45541;BME280;31265;49.680;8.608;2023-04-27T06:11:36;100795.22;;;6.63;100.00
45541;BME280;31265;49.680;8.608;2023-04-27T06:14:04;100796.91;;;6.66;100.00
45541;BME280;31265;49.680;8.608;2023-04-27T06:16:32;100805.19;;;6.66;100.00
45541;BME280;31265;49.680;8.608;2023-04-27T06:19:01;100806.38;;;6.71;100.00
45541;BME280;31265;49.680;8.608;2023-04-27T06:21:33;100806.13;;;6.87;100.00
45541;BME280;31265;49.680;8.608;2023-04-27T06:24:01;100813.78;;;6.95;100.00
45541;BME280;31265;49.680;8.608;2023-04-27T06:26:29;100811.50;;;7.44;100.00
45541;BME280;31265;49.680;8.608;2023-04-27T06:28:58;100808.94;;;7.46;100.00
45541;BME280;31265;49.680;8.608;2023-04-27T06:31:26;100820.66;;;7.66;100.00
45541;BME280;31265;49.680;8.608;2023-04-27T06:33:54;100837.69;;;7.96;100.00
45541;BME280;31265;49.680;8.608;2023-04-27T06:36:24;100822.56;;;8.11;100.00
45541;BME280;31265;49.680;8.608;2023-04-27T06:38:54;100826.03;;;8.38;100.00
45541;BME280;31265;49.680;8.608;2023-04-27T06:41:22;100827.97;;;8.43;100.00
45541;BME280;31265;49.680;8.608;2023-04-27T06:43:52;100831.47;;;8.30;100.00
45541;BME280;31265;49.680;8.608;2023-04-27T06:46:22;100833.81;;;8.39;100.00
45541;BME280;31265;49.680;8.608;2023-04-27T06:48:50;100832.41;;;8.59;100.00
45541;BME280;31265;49.680;8.608;2023-04-27T06:51:21;100834.75;;;8.55;100.00
45541;BME280;31265;49.680;8.608;2023-04-27T06:53:50;100841.56;;;8.89;100.00
45541;BME280;31265;49.680;8.608;2023-04-27T06:56:20;100844.41;;;8.96;100.00
45541;BME280;31265;49.680;8.608;2023-04-27T06:58:48;100836.13;;;9.17;100.00
45541;BME280;31265;49.680;8.608;2023-04-27T07:01:18;100840.09;;;9.30;100.00
45541;BME280;31265;49.680;8.608;2023-04-27T07:03:47;100846.72;;;9.47;100.00
45541;BME280;31265;49.680;8.608;2023-04-27T07:06:15;100843.84;;;9.61;100.00
45541;BME280;31265;49.680;8.608;2023-04-27T07:08:44;100846.81;;;9.63;100.00
45541;BME280;31265;49.680;8.608;2023-04-27T07:11:12;100832.59;;;9.87;100.00
45541;BME280;31265;49.680;8.608;2023-04-27T07:13:44;100842.13;;;10.44;100.00
45541;BME280;31265;49.680;8.608;2023-04-27T07:16:13;100833.50;;;10.63;100.00
45541;BME280;31265;49.680;8.608;2023-04-27T07:18:45;100837.28;;;10.96;100.00
45541;BME280;31265;49.680;8.608;2023-04-27T07:21:13;100830.09;;;11.16;100.00
45541;BME280;31265;49.680;8.608;2023-04-27T07:23:41;100841.94;;;11.32;100.00
45541;BME280;31265;49.680;8.608;2023-04-27T07:26:10;100836.56;;;11.26;100.00
45541;BME280;31265;49.680;8.608;2023-04-27T07:28:38;100837.47;;;11.82;100.00
45541;BME280;31265;49.680;8.608;2023-04-27T07:31:08;100841.88;;;12.01;100.00
45541;BME280;31265;49.680;8.608;2023-04-27T07:33:36;100839.38;;;12.36;100.00
45541;BME280;31265;49.680;8.608;2023-04-27T07:36:04;100835.53;;;12.64;100.00
45541;BME280;31265;49.680;8.608;2023-04-27T07:38:34;100845.63;;;12.84;94.54
45541;BME280;31265;49.680;8.608;2023-04-27T07:41:04;100836.91;;;12.80;94.20
45541;BME280;31265;49.680;8.608;2023-04-27T07:43:33;100842.31;;;12.78;89.47
45541;BME280;31265;49.680;8.608;2023-04-27T07:46:04;100840.47;;;12.73;82.49
45541;BME280;31265;49.680;8.608;2023-04-27T07:48:34;100843.22;;;13.39;83.17
45541;BME280;31265;49.680;8.608;2023-04-27T07:51:03;100836.50;;;13.17;86.21
45541;BME280;31265;49.680;8.608;2023-04-27T07:53:34;100836.69;;;13.44;89.79
45541;BME280;31265;49.680;8.608;2023-04-27T07:56:04;100834.03;;;13.71;91.07
45541;BME280;31265;49.680;8.608;2023-04-27T07:58:32;100823.66;;;13.46;85.97
45541;BME280;31265;49.680;8.608;2023-04-27T08:01:05;100827.34;;;13.49;83.73
45541;BME280;31265;49.680;8.608;2023-04-27T08:03:38;100823.88;;;13.83;79.13
45541;BME280;31265;49.680;8.608;2023-04-27T08:06:10;100821.78;;;14.36;78.26
45541;BME280;31265;49.680;8.608;2023-04-27T08:08:39;100808.72;;;14.93;75.86
45541;BME280;31265;49.680;8.608;2023-04-27T08:11:08;100820.03;;;15.22;73.22
45541;BME280;31265;49.680;8.608;2023-04-27T08:13:37;100814.66;;;15.53;69.20
45541;BME280;31265;49.680;8.608;2023-04-27T08:16:05;100814.25;;;15.76;67.54
45541;BME280;31265;49.680;8.608;2023-04-27T08:18:35;100821.94;;;15.85;62.05
45541;BME280;31265;49.680;8.608;2023-04-27T08:21:03;100820.50;;;15.47;59.85
45541;BME280;31265;49.680;8.608;2023-04-27T08:23:32;100815.88;;;15.89;61.77
45541;BME280;31265;49.680;8.608;2023-04-27T08:26:00;100816.50;;;15.87;60.41
45541;BME280;31265;49.680;8.608;2023-04-27T08:28:28;100807.00;;;16.41;58.81
45541;BME280;31265;49.680;8.608;2023-04-27T08:30:56;100806.13;;;16.29;56.84
45541;BME280;31265;49.680;8.608;2023-04-27T08:33:24;100807.94;;;16.05;57.67
45541;BME280;31265;49.680;8.608;2023-04-27T08:35:54;100797.91;;;15.92;55.65
45541;BME280;31265;49.680;8.608;2023-04-27T08:38:22;100797.25;;;15.45;58.35
45541;BME280;31265;49.680;8.608;2023-04-27T08:40:51;100800.09;;;15.64;53.75
45541;BME280;31265;49.680;8.608;2023-04-27T08:43:19;100801.47;;;15.73;55.08
45541;BME280;31265;49.680;8.608;2023-04-27T08:45:48;100795.88;;;15.73;54.89
45541;BME280;31265;49.680;8.608;2023-04-27T08:48:17;100790.19;;;15.34;55.46
45541;BME280;31265;49.680;8.608;2023-04-27T08:50:49;100781.47;;;15.20;55.93
45541;BME280;31265;49.680;8.608;2023-04-27T08:53:20;100797.47;;;15.76;54.57
45541;BME280;31265;49.680;8.608;2023-04-27T08:55:49;100790.84;;;15.72;56.62
45541;BME280;31265;49.680;8.608;2023-04-27T08:58:17;100797.75;;;16.09;55.89
45541;BME280;31265;49.680;8.608;2023-04-27T09:00:45;100798.63;;;16.92;50.32
45541;BME280;31265;49.680;8.608;2023-04-27T09:03:21;100798.25;;;16.66;48.40
45541;BME280;31265;49.680;8.608;2023-04-27T09:05:50;100810.41;;;16.49;47.87
45541;BME280;31265;49.680;8.608;2023-04-27T09:08:41;100813.88;;;16.69;47.70
45541;BME280;31265;49.680;8.608;2023-04-27T09:11:10;100816.06;;;17.22;47.98
45541;BME280;31265;49.680;8.608;2023-04-27T09:13:39;100813.47;;;17.04;49.11
45541;BME280;31265;49.680;8.608;2023-04-27T09:16:11;100810.09;;;17.27;47.70
45541;BME280;31265;49.680;8.608;2023-04-27T09:18:42;100806.47;;;17.46;48.05
45541;BME280;31265;49.680;8.608;2023-04-27T09:21:10;100809.03;;;17.75;47.89
45541;BME280;31265;49.680;8.608;2023-04-27T09:23:50;100808.59;;;17.57;47.26
45541;BME280;31265;49.680;8.608;2023-04-27T09:26:19;100805.78;;;17.57;46.75
45541;BME280;31265;49.680;8.608;2023-04-27T09:28:52;100794.16;;;17.73;48.09
45541;BME280;31265;49.680;8.608;2023-04-27T09:31:29;100802.22;;;18.33;49.46
45541;BME280;31265;49.680;8.608;2023-04-27T09:33:57;100797.81;;;19.22;45.68
45541;BME280;31265;49.680;8.608;2023-04-27T09:36:26;100798.44;;;18.85;44.00
45541;BME280;31265;49.680;8.608;2023-04-27T09:38:56;100791.16;;;18.59;43.72
45541;BME280;31265;49.680;8.608;2023-04-27T09:41:25;100796.66;;;18.45;43.18
45541;BME280;31265;49.680;8.608;2023-04-27T09:43:56;100795.13;;;18.77;44.69
45541;BME280;31265;49.680;8.608;2023-04-27T09:46:25;100801.34;;;19.11;41.54
45541;BME280;31265;49.680;8.608;2023-04-27T09:48:56;100791.22;;;17.71;46.52
45541;BME280;31265;49.680;8.608;2023-04-27T09:51:24;100788.25;;;18.12;43.85
45541;BME280;31265;49.680;8.608;2023-04-27T09:53:57;100788.47;;;18.49;44.55
45541;BME280;31265;49.680;8.608;2023-04-27T09:56:41;100793.53;;;19.09;41.99
45541;BME280;31265;49.680;8.608;2023-04-27T09:59:33;100781.81;;;18.89;43.05
45541;BME280;31265;49.680;8.608;2023-04-27T10:02:03;100791.09;;;19.04;42.73
45541;BME280;31265;49.680;8.608;2023-04-27T10:05:04;100776.41;;;17.37;46.87
45541;BME280;31265;49.680;8.608;2023-04-27T10:07:38;100784.28;;;18.38;48.41
45541;BME280;31265;49.680;8.608;2023-04-27T10:10:14;100788.25;;;19.04;45.18
45541;BME280;31265;49.680;8.608;2023-04-27T10:12:54;100776.78;;;19.72;45.54
45541;BME280;31265;49.680;8.608;2023-04-27T10:15:27;100781.41;;;19.80;39.85
45541;BME280;31265;49.680;8.608;2023-04-27T10:18:03;100780.69;;;19.79;41.37
45541;BME280;31265;49.680;8.608;2023-04-27T10:20:34;100773.56;;;20.29;41.68
45541;BME280;31265;49.680;8.608;2023-04-27T10:23:03;100781.19;;;19.15;43.89
45541;BME280;31265;49.680;8.608;2023-04-27T10:25:38;100775.94;;;19.58;44.79
45541;BME280;31265;49.680;8.608;2023-04-27T10:28:07;100778.13;;;19.22;41.65
45541;BME280;31265;49.680;8.608;2023-04-27T10:30:43;100784.88;;;20.04;39.80
45541;BME280;31265;49.680;8.608;2023-04-27T10:33:15;100779.88;;;19.53;39.96
45541;BME280;31265;49.680;8.608;2023-04-27T10:35:53;100772.09;;;19.40;40.17
45541;BME280;31265;49.680;8.608;2023-04-27T10:38:27;100773.91;;;19.47;43.21
45541;BME280;31265;49.680;8.608;2023-04-27T10:40:59;100774.00;;;18.31;45.00
45541;BME280;31265;49.680;8.608;2023-04-27T10:43:29;100772.88;;;18.81;44.13
45541;BME280;31265;49.680;8.608;2023-04-27T10:46:06;100762.19;;;19.39;42.14
45541;BME280;31265;49.680;8.608;2023-04-27T10:48:35;100765.91;;;19.06;43.31
45541;BME280;31265;49.680;8.608;2023-04-27T10:51:04;100768.19;;;20.08;41.26
45541;BME280;31265;49.680;8.608;2023-04-27T10:53:33;100765.66;;;20.39;37.31
45541;BME280;31265;49.680;8.608;2023-04-27T10:56:04;100762.13;;;20.39;41.29
45541;BME280;31265;49.680;8.608;2023-04-27T10:58:33;100762.75;;;20.91;36.85
45541;BME280;31265;49.680;8.608;2023-04-27T11:01:22;100758.56;;;21.05;36.68
45541;BME280;31265;49.680;8.608;2023-04-27T11:03:54;100760.97;;;21.11;35.77
45541;BME280;31265;49.680;8.608;2023-04-27T11:06:23;100759.78;;;20.61;38.01
45541;BME280;31265;49.680;8.608;2023-04-27T11:08:51;100749.66;;;21.25;34.68
45541;BME280;31265;49.680;8.608;2023-04-27T11:11:22;100747.88;;;21.45;36.13
45541;BME280;31265;49.680;8.608;2023-04-27T11:13:52;100759.19;;;20.90;37.40
45541;BME280;31265;49.680;8.608;2023-04-27T11:16:20;100750.72;;;21.32;35.90
45541;BME280;31265;49.680;8.608;2023-04-27T11:18:48;100751.19;;;21.85;35.74
45541;BME280;31265;49.680;8.608;2023-04-27T11:21:17;100747.69;;;22.30;35.34
45541;BME280;31265;49.680;8.608;2023-04-27T11:23:47;100741.38;;;22.64;35.64
45541;BME280;31265;49.680;8.608;2023-04-27T11:26:18;100737.16;;;21.72;37.25
45541;BME280;31265;49.680;8.608;2023-04-27T11:28:58;100735.03;;;22.18;36.30
45541;BME280;31265;49.680;8.608;2023-04-27T11:31:37;100734.47;;;21.60;38.10
45541;BME280;31265;49.680;8.608;2023-04-27T11:34:06;100732.28;;;19.08;41.08
45541;BME280;31265;49.680;8.608;2023-04-27T11:36:35;100727.97;;;19.68;40.38
45541;BME280;31265;49.680;8.608;2023-04-27T11:39:03;100726.28;;;20.81;40.04
45541;BME280;31265;49.680;8.608;2023-04-27T11:41:34;100730.34;;;21.05;38.00
45541;BME280;31265;49.680;8.608;2023-04-27T11:44:05;100726.91;;;21.07;37.23
45541;BME280;31265;49.680;8.608;2023-04-27T11:46:34;100722.47;;;20.49;41.57
45541;BME280;31265;49.680;8.608;2023-04-27T11:49:05;100717.09;;;19.62;39.95
45541;BME280;31265;49.680;8.608;2023-04-27T11:51:35;100716.06;;;20.74;38.29
45541;BME280;31265;49.680;8.608;2023-04-27T11:54:04;100706.75;;;19.79;42.75
45541;BME280;31265;49.680;8.608;2023-04-27T11:56:35;100713.03;;;20.97;36.69
45541;BME280;31265;49.680;8.608;2023-04-27T18:11:25;100511.97;;;13.99;71.44
45541;BME280;31265;49.680;8.608;2023-04-27T18:13:54;100511.66;;;13.85;75.58
45541;BME280;31265;49.680;8.608;2023-04-27T18:16:23;100506.16;;;13.68;81.91
45541;BME280;31265;49.680;8.608;2023-04-27T18:18:52;100505.78;;;13.54;82.37
45541;BME280;31265;49.680;8.608;2023-04-27T18:21:20;100505.94;;;13.56;82.67
45541;BME280;31265;49.680;8.608;2023-04-27T18:23:48;100495.91;;;13.43;90.87
45541;BME280;31265;49.680;8.608;2023-04-27T18:26:16;100493.88;;;13.26;95.94
45541;BME280;31265;49.680;8.608;2023-04-27T18:28:46;100505.22;;;13.11;96.53
45541;BME280;31265;49.680;8.608;2023-04-27T18:31:14;100487.78;;;12.93;99.67
45541;BME280;31265;49.680;8.608;2023-04-27T18:33:43;100491.47;;;12.78;100.00
45541;BME280;31265;49.680;8.608;2023-04-27T18:36:12;100487.72;;;12.66;100.00
45541;BME280;31265;49.680;8.608;2023-04-27T18:38:40;100499.00;;;12.68;100.00
45541;BME280;31265;49.680;8.608;2023-04-27T18:41:08;100499.84;;;12.61;100.00
45541;BME280;31265;49.680;8.608;2023-04-27T18:43:37;100498.63;;;12.54;100.00
45541;BME280;31265;49.680;8.608;2023-04-27T18:46:06;100501.22;;;12.52;100.00
45541;BME280;31265;49.680;8.608;2023-04-27T18:48:35;100495.22;;;12.38;100.00
45541;BME280;31265;49.680;8.608;2023-04-27T18:51:03;100498.81;;;12.31;100.00
45541;BME280;31265;49.680;8.608;2023-04-27T18:53:32;100500.13;;;12.30;100.00
45541;BME280;31265;49.680;8.608;2023-04-27T18:56:02;100493.31;;;12.23;100.00
45541;BME280;31265;49.680;8.608;2023-04-27T18:58:32;100499.13;;;12.18;100.00
45541;BME280;31265;49.680;8.608;2023-04-27T19:01:00;100503.63;;;12.13;100.00
45541;BME280;31265;49.680;8.608;2023-04-27T19:03:30;100503.44;;;12.11;100.00
45541;BME280;31265;49.680;8.608;2023-04-27T19:05:59;100501.44;;;12.12;100.00
45541;BME280;31265;49.680;8.608;2023-04-27T19:08:28;100501.09;;;12.08;100.00
45541;BME280;31265;49.680;8.608;2023-04-27T19:10:56;100503.25;;;12.17;100.00
45541;BME280;31265;49.680;8.608;2023-04-27T19:13:26;100506.03;;;12.17;100.00
45541;BME280;31265;49.680;8.608;2023-04-27T19:15:54;100505.25;;;12.16;100.00
45541;BME280;31265;49.680;8.608;2023-04-27T19:18:24;100492.44;;;12.21;100.00
45541;BME280;31265;49.680;8.608;2023-04-27T19:20:54;100492.34;;;12.29;100.00
45541;BME280;31265;49.680;8.608;2023-04-27T19:23:24;100494.09;;;12.24;100.00